createdAt,value
2017-12-25T00:01:12.436Z,93.10
2017-12-25T00:03:40.061Z,93.00
2017-12-25T00:06:08.376Z,93.20
2017-12-25T00:08:35.947Z,93.20
2017-12-25T00:11:03.539Z,93.20
2017-12-25T00:13:31.865Z,93.20
2017-12-25T00:15:59.426Z,93.20
2017-12-25T00:18:27.047Z,93.00
2017-12-25T00:20:54.601Z,92.90
2017-12-25T00:23:22.907Z,92.80
2017-12-25T00:25:50.466Z,92.70
2017-12-25T00:28:18.008Z,92.90
2017-12-25T00:30:45.555Z,93.10
2017-12-25T00:33:25.605Z,92.90
2017-12-25T00:39:04.280Z,93.20
2017-12-25T00:41:31.810Z,93.50
2017-12-25T00:43:59.339Z,93.50
2017-12-25T00:46:26.899Z,93.50
2017-12-25T00:48:54.431Z,93.60
2017-12-25T00:51:21.963Z,93.90
2017-12-25T00:53:49.518Z,93.40
2017-12-25T00:56:17.047Z,93.60
2017-12-25T00:58:44.573Z,93.60
2017-12-25T01:01:12.151Z,93.30
2017-12-25T01:03:39.695Z,93.30
2017-12-25T01:06:07.991Z,93.30
2017-12-25T01:08:35.592Z,93.20
2017-12-25T01:11:03.147Z,93.20
2017-12-25T01:13:30.671Z,92.90
2017-12-25T01:15:58.226Z,92.60
2017-12-25T01:18:25.769Z,93.20
2017-12-25T01:20:53.303Z,93.20
2017-12-25T01:23:21.651Z,93.40
2017-12-25T01:25:49.174Z,93.40
2017-12-25T01:28:16.703Z,93.60
2017-12-25T01:30:44.272Z,94.00
2017-12-25T01:33:11.803Z,94.10
2017-12-25T01:35:40.599Z,94.00
2017-12-25T01:38:08.163Z,94.00
2017-12-25T01:40:35.703Z,93.80
2017-12-25T01:43:03.476Z,93.70
2017-12-25T01:45:31.082Z,93.70
2017-12-25T01:47:58.623Z,93.70
2017-12-25T01:50:26.158Z,93.60
2017-12-25T01:52:53.728Z,94.00
2017-12-25T01:55:22.954Z,94.30
2017-12-25T01:57:59.037Z,94.30
2017-12-25T02:00:38.338Z,94.30
2017-12-25T02:03:05.947Z,94.20
2017-12-25T02:05:41.995Z,94.10
2017-12-25T02:08:28.970Z,94.10
2017-12-25T02:10:56.508Z,94.30
2017-12-25T02:13:24.039Z,94.10
2017-12-25T02:15:51.606Z,93.90
2017-12-25T02:18:19.147Z,93.90
2017-12-25T02:20:46.695Z,94.00
2017-12-25T02:23:15.580Z,93.90
2017-12-25T02:25:43.108Z,94.10
2017-12-25T02:28:10.639Z,94.20
2017-12-25T02:30:38.208Z,94.10
2017-12-25T02:33:05.755Z,93.90
2017-12-25T02:35:33.307Z,93.90
2017-12-25T02:38:01.356Z,94.00
2017-12-25T02:40:28.887Z,94.20
2017-12-25T02:42:56.427Z,94.20
2017-12-25T02:45:24.778Z,94.00
2017-12-25T02:47:52.321Z,94.00
2017-12-25T02:50:19.852Z,94.10
2017-12-25T02:52:47.419Z,94.00
2017-12-25T02:55:16.467Z,94.10
2017-12-25T02:57:43.999Z,94.20
2017-12-25T03:00:11.562Z,94.10
2017-12-25T03:02:39.095Z,93.80
2017-12-25T03:05:06.623Z,93.70
2017-12-25T03:07:34.979Z,94.00
2017-12-25T03:10:02.523Z,94.00
2017-12-25T03:12:30.059Z,94.00
2017-12-25T03:14:57.616Z,94.00
2017-12-25T03:17:25.143Z,93.90
2017-12-25T03:19:52.676Z,94.00
2017-12-25T03:22:20.244Z,94.00
2017-12-25T03:24:47.787Z,93.90
2017-12-25T03:27:17.259Z,94.00
2017-12-25T03:29:44.846Z,94.00
2017-12-25T03:32:12.386Z,94.10
2017-12-25T03:34:39.939Z,94.10
2017-12-25T03:37:07.498Z,94.00
2017-12-25T03:39:35.247Z,94.10
2017-12-25T03:42:02.791Z,94.10
2017-12-25T03:44:30.347Z,93.90
2017-12-25T03:46:57.874Z,94.00
2017-12-25T03:49:25.414Z,94.30
2017-12-25T03:51:53.020Z,94.30
2017-12-25T03:54:20.572Z,94.00
2017-12-25T03:56:48.114Z,94.00
2017-12-25T03:59:16.428Z,94.10
2017-12-25T04:01:44.736Z,93.80
2017-12-25T04:04:12.287Z,93.80
2017-12-25T04:06:39.843Z,93.60
2017-12-25T04:09:07.377Z,94.10
2017-12-25T04:11:34.912Z,94.10
2017-12-25T04:14:02.523Z,93.90
2017-12-25T04:16:30.056Z,94.60
2017-12-25T04:18:57.595Z,94.90
2017-12-25T04:21:25.151Z,94.80
2017-12-25T04:23:52.696Z,95.10
2017-12-25T04:26:20.234Z,94.90
2017-12-25T04:28:47.795Z,94.40
2017-12-25T04:31:16.260Z,95.20
2017-12-25T04:33:43.804Z,95.20
2017-12-25T04:36:12.158Z,95.10
2017-12-25T04:38:39.695Z,95.10
2017-12-25T04:41:07.623Z,95.30
2017-12-25T04:43:35.991Z,95.30
2017-12-25T04:46:04.298Z,95.30
2017-12-25T04:48:31.839Z,95.30
2017-12-25T04:50:59.396Z,95.10
2017-12-25T04:53:26.943Z,95.30
2017-12-25T04:55:54.488Z,95.10
2017-12-25T04:58:22.084Z,95.20
2017-12-25T05:00:49.632Z,95.20
2017-12-25T05:03:17.180Z,95.30
2017-12-25T05:05:45.523Z,95.10
2017-12-25T05:08:25.451Z,95.10
2017-12-25T05:13:42.792Z,95.50
2017-12-25T05:16:10.327Z,95.50
2017-12-25T05:18:37.863Z,95.50
2017-12-25T05:21:06.211Z,95.60
2017-12-25T05:23:33.763Z,95.70
2017-12-25T05:26:01.299Z,95.60
2017-12-25T05:28:28.887Z,95.60
2017-12-25T05:30:56.445Z,95.70
2017-12-25T05:33:24.012Z,95.60
2017-12-25T05:35:51.632Z,95.80
2017-12-25T05:38:19.178Z,95.80
2017-12-25T05:40:46.723Z,96.10
2017-12-25T05:43:32.759Z,95.80
2017-12-25T05:48:59.228Z,95.70
2017-12-25T05:51:26.768Z,95.80
2017-12-25T05:53:54.306Z,95.90
2017-12-25T05:56:21.940Z,95.70
2017-12-25T05:58:49.508Z,96.10
2017-12-25T06:01:17.068Z,96.00
2017-12-25T06:03:44.647Z,96.10
2017-12-25T06:06:13.882Z,96.20
2017-12-25T06:08:41.692Z,96.20
2017-12-25T06:11:09.302Z,96.30
2017-12-25T06:13:36.942Z,96.40
2017-12-25T06:16:04.499Z,96.00
2017-12-25T06:18:32.167Z,95.90
2017-12-25T06:20:59.850Z,95.80
2017-12-25T06:23:27.392Z,95.70
2017-12-25T06:25:55.134Z,95.90
2017-12-25T06:28:23.450Z,95.80
2017-12-25T06:30:51.013Z,95.80
2017-12-25T06:33:18.624Z,95.90
2017-12-25T06:35:46.209Z,96.00
2017-12-25T06:38:15.503Z,95.60
2017-12-25T06:40:44.062Z,95.20
2017-12-25T06:43:11.600Z,95.20
2017-12-25T06:45:39.720Z,95.30
2017-12-25T06:48:08.043Z,95.30
2017-12-25T06:50:35.770Z,95.30
2017-12-25T06:53:03.345Z,95.30
2017-12-25T06:55:30.927Z,95.20
2017-12-25T06:57:58.590Z,94.70
2017-12-25T07:00:26.256Z,94.30
2017-12-25T07:02:53.873Z,94.50
2017-12-25T07:05:21.417Z,94.30
2017-12-25T07:07:49.100Z,94.40
2017-12-25T07:10:16.664Z,94.90
2017-12-25T07:12:44.264Z,95.30
2017-12-25T07:15:11.812Z,95.20
2017-12-25T07:17:39.423Z,95.40
2017-12-25T07:20:07.732Z,95.30
2017-12-25T07:22:36.036Z,95.20
2017-12-25T07:25:03.808Z,95.20
2017-12-25T07:27:31.462Z,95.20
2017-12-25T07:29:59.007Z,95.30
2017-12-25T07:32:26.576Z,95.00
2017-12-25T07:34:54.112Z,94.40
2017-12-25T07:37:21.656Z,94.30
2017-12-25T07:39:50.000Z,94.20
2017-12-25T07:42:17.535Z,94.20
2017-12-25T07:44:45.240Z,93.80
2017-12-25T07:47:15.039Z,93.50
2017-12-25T07:49:42.578Z,93.50
2017-12-25T07:52:10.144Z,93.50
2017-12-25T07:54:37.743Z,93.80
2017-12-25T07:57:06.049Z,93.50
2017-12-25T07:59:34.355Z,94.00
2017-12-25T08:02:01.952Z,94.00
2017-12-25T08:04:30.280Z,94.10
2017-12-25T08:06:57.815Z,94.10
2017-12-25T08:09:25.432Z,93.90
2017-12-25T08:11:53.004Z,93.80
2017-12-25T08:14:20.548Z,93.80
2017-12-25T08:16:48.120Z,93.50
2017-12-25T08:19:16.496Z,93.50
2017-12-25T08:21:44.048Z,93.70
2017-12-25T08:24:11.628Z,93.60
2017-12-25T08:26:39.937Z,93.60
2017-12-25T08:29:07.500Z,93.50
2017-12-25T08:31:35.096Z,93.20
2017-12-25T08:34:02.992Z,93.50
2017-12-25T08:36:30.630Z,93.10
2017-12-25T08:38:58.238Z,93.20
2017-12-25T08:41:25.797Z,93.50
2017-12-25T08:43:54.119Z,92.90
2017-12-25T08:46:21.692Z,92.90
2017-12-25T08:48:49.634Z,92.30
2017-12-25T08:51:17.175Z,92.50
2017-12-25T08:53:44.764Z,92.50
2017-12-25T08:56:12.300Z,91.90
2017-12-25T08:58:40.631Z,91.80
2017-12-25T09:01:08.221Z,92.00
2017-12-25T09:03:35.779Z,92.00
2017-12-25T09:06:04.087Z,92.20
2017-12-25T09:08:31.665Z,92.20
2017-12-25T09:10:59.208Z,92.00
2017-12-25T09:13:26.767Z,91.70
2017-12-25T09:15:54.376Z,91.30
2017-12-25T09:18:22.687Z,90.60
2017-12-25T09:20:50.214Z,90.60
2017-12-25T09:23:17.830Z,90.60
2017-12-25T09:25:45.374Z,90.90
2017-12-25T09:28:23.556Z,90.60
2017-12-25T09:34:12.980Z,90.00
2017-12-25T09:36:40.529Z,90.10
2017-12-25T09:39:08.079Z,90.20
2017-12-25T09:41:35.659Z,90.70
2017-12-25T09:44:03.204Z,90.40
2017-12-25T09:46:30.739Z,90.80
2017-12-25T09:48:58.340Z,90.80
2017-12-25T09:51:25.884Z,90.90
2017-12-25T09:53:53.488Z,90.20
2017-12-25T09:56:21.042Z,90.20
2017-12-25T09:58:48.588Z,90.00
2017-12-25T10:01:17.247Z,90.00
2017-12-25T10:03:44.816Z,90.30
2017-12-25T10:06:12.358Z,90.10
2017-12-25T10:08:39.906Z,90.10
2017-12-25T10:11:07.482Z,90.00
2017-12-25T10:13:35.024Z,89.10
2017-12-25T10:16:02.559Z,88.20
2017-12-25T10:18:30.924Z,88.20
2017-12-25T10:21:04.311Z,88.20
2017-12-25T10:23:31.843Z,89.10
2017-12-25T10:25:59.407Z,88.90
2017-12-25T10:28:26.950Z,88.50
2017-12-25T10:30:54.504Z,88.90
2017-12-25T10:33:22.088Z,88.50
2017-12-25T10:35:49.628Z,87.50
2017-12-25T10:38:17.171Z,88.10
2017-12-25T10:40:44.759Z,89.10
2017-12-25T10:43:12.291Z,88.50
2017-12-25T10:45:39.823Z,88.70
2017-12-25T10:48:08.161Z,89.50
2017-12-25T10:50:36.243Z,89.40
2017-12-25T10:53:03.792Z,88.50
2017-12-25T10:55:31.368Z,87.90
2017-12-25T10:57:58.909Z,87.10
2017-12-25T11:00:32.211Z,88.20
2017-12-25T11:02:59.747Z,86.60
2017-12-25T11:05:27.288Z,86.70
2017-12-25T11:07:54.888Z,86.20
2017-12-25T11:10:22.427Z,87.20
2017-12-25T11:12:49.968Z,88.00
2017-12-25T11:15:17.548Z,85.60
2017-12-25T11:17:45.128Z,85.50
2017-12-25T11:20:13.589Z,85.30
2017-12-25T11:22:41.176Z,85.20
2017-12-25T11:25:08.715Z,85.80
2017-12-25T11:27:36.255Z,86.90
2017-12-25T11:30:03.824Z,86.30
2017-12-25T11:32:31.369Z,85.90
2017-12-25T11:34:58.916Z,85.90
2017-12-25T11:37:26.484Z,85.80
2017-12-25T11:39:54.028Z,85.70
2017-12-25T11:42:22.335Z,84.30
2017-12-25T11:44:49.924Z,84.30
2017-12-25T11:47:17.465Z,85.70
2017-12-25T11:49:44.998Z,85.90
2017-12-25T11:52:13.093Z,85.60
2017-12-25T11:54:40.635Z,86.40
2017-12-25T11:57:08.180Z,86.90
2017-12-25T11:59:35.739Z,88.10
2017-12-25T12:02:04.050Z,87.40
2017-12-25T12:04:31.595Z,87.40
2017-12-25T12:06:59.208Z,88.70
2017-12-25T12:09:26.744Z,87.40
2017-12-25T12:11:54.295Z,86.90
2017-12-25T12:14:21.855Z,85.30
2017-12-25T12:16:49.396Z,84.60
2017-12-25T12:19:16.931Z,85.30
2017-12-25T12:21:44.491Z,86.10
2017-12-25T12:24:13.836Z,86.70
2017-12-25T12:26:41.368Z,86.70
2017-12-25T12:29:08.964Z,86.80
2017-12-25T12:31:36.507Z,87.30
2017-12-25T12:34:04.052Z,87.50
2017-12-25T12:36:31.614Z,86.70
2017-12-25T12:38:59.153Z,87.40
2017-12-25T12:41:26.687Z,87.10
2017-12-25T12:43:55.011Z,87.60
2017-12-25T12:46:22.550Z,87.60
2017-12-25T12:48:50.098Z,87.10
2017-12-25T12:51:17.707Z,87.80
2017-12-25T12:53:45.715Z,87.70
2017-12-25T12:56:15.453Z,87.70
2017-12-25T12:58:43.020Z,87.60
2017-12-25T13:01:10.555Z,86.90
2017-12-25T13:03:38.084Z,86.70
2017-12-25T13:06:05.643Z,87.10
2017-12-25T13:08:33.175Z,87.50
2017-12-25T13:11:00.710Z,88.00
2017-12-25T13:13:28.296Z,88.00
2017-12-25T13:15:55.825Z,88.40
2017-12-25T13:18:23.372Z,89.00
2017-12-25T13:20:50.949Z,90.00
2017-12-25T13:23:18.500Z,90.10
2017-12-25T13:25:46.037Z,90.40
2017-12-25T13:28:15.399Z,90.80
2017-12-25T13:30:42.939Z,90.80
2017-12-25T13:33:10.475Z,90.90
2017-12-25T13:35:38.089Z,91.10
2017-12-25T13:38:05.631Z,90.90
2017-12-25T13:40:33.175Z,91.50
2017-12-25T13:43:00.751Z,91.50
2017-12-25T13:45:28.528Z,91.80
2017-12-25T13:47:56.072Z,92.10
2017-12-25T13:50:23.640Z,92.20
2017-12-25T13:52:51.184Z,92.40
2017-12-25T13:55:19.539Z,92.40
2017-12-25T13:57:47.131Z,92.40
2017-12-25T14:00:16.532Z,92.60
2017-12-25T14:02:44.078Z,92.90
2017-12-25T14:05:12.423Z,92.90
2017-12-25T14:07:39.963Z,92.90
2017-12-25T14:10:07.499Z,92.90
2017-12-25T14:12:35.057Z,92.90
2017-12-25T14:15:02.600Z,92.90
2017-12-25T14:17:30.143Z,92.70
2017-12-25T14:19:57.744Z,92.80
2017-12-25T14:22:25.319Z,92.60
2017-12-25T14:24:52.862Z,92.40
2017-12-25T14:27:20.427Z,92.60
2017-12-25T14:29:47.963Z,92.60
2017-12-25T14:32:17.262Z,93.20
2017-12-25T14:34:44.829Z,93.20
2017-12-25T14:37:12.392Z,93.30
2017-12-25T14:39:39.976Z,93.30
2017-12-25T14:42:07.602Z,93.60
2017-12-25T14:44:35.203Z,93.70
2017-12-25T14:47:04.447Z,93.60
2017-12-25T14:49:32.044Z,93.60
2017-12-25T14:51:59.596Z,93.70
2017-12-25T14:54:27.127Z,93.60
2017-12-25T14:56:54.924Z,93.80
2017-12-25T14:59:22.636Z,94.00
2017-12-25T15:01:50.183Z,93.90
2017-12-25T15:04:18.549Z,93.90
2017-12-25T15:06:46.096Z,93.90
2017-12-25T15:09:24.484Z,93.80
2017-12-25T15:14:25.779Z,93.50
2017-12-25T15:16:53.312Z,93.80
2017-12-25T15:19:20.862Z,94.00
2017-12-25T15:21:48.451Z,94.10
2017-12-25T15:24:16.452Z,94.10
2017-12-25T15:26:43.987Z,93.90
2017-12-25T15:29:11.547Z,94.00
2017-12-25T15:31:39.094Z,94.00
2017-12-25T15:34:07.396Z,93.90
2017-12-25T15:36:34.959Z,93.90
2017-12-25T15:39:02.524Z,93.90
2017-12-25T15:41:30.088Z,93.80
2017-12-25T15:43:58.435Z,94.10
2017-12-25T15:46:25.976Z,93.70
2017-12-25T15:48:53.511Z,93.80
2017-12-25T15:51:21.067Z,93.90
2017-12-25T15:53:48.599Z,94.10
2017-12-25T15:56:16.479Z,94.00
2017-12-25T15:58:44.336Z,93.80
2017-12-25T16:01:11.875Z,93.90
2017-12-25T16:03:39.416Z,93.80
2017-12-25T16:06:07.011Z,93.40
2017-12-25T16:08:34.559Z,93.40
2017-12-25T16:11:02.153Z,93.40
2017-12-25T16:13:29.793Z,93.20
2017-12-25T16:15:57.347Z,93.20
2017-12-25T16:18:24.884Z,93.10
2017-12-25T16:20:52.451Z,93.30
2017-12-25T16:23:19.984Z,93.40
2017-12-25T16:25:47.532Z,93.50
2017-12-25T16:28:16.491Z,93.40
2017-12-25T16:30:44.028Z,93.40
2017-12-25T16:33:11.565Z,93.30
2017-12-25T16:35:39.130Z,93.30
2017-12-25T16:38:06.670Z,93.50
2017-12-25T16:40:34.215Z,93.50
2017-12-25T16:43:01.794Z,93.60
2017-12-25T16:45:29.335Z,93.70
2017-12-25T16:47:56.878Z,93.40
2017-12-25T16:50:25.269Z,93.70
2017-12-25T16:52:52.812Z,93.70
2017-12-25T16:55:21.137Z,93.90
2017-12-25T16:57:48.723Z,93.80
2017-12-25T17:00:16.875Z,93.90
2017-12-25T17:02:44.411Z,93.70
2017-12-25T17:05:11.970Z,93.90
2017-12-25T17:07:39.503Z,93.90
2017-12-25T17:10:07.043Z,94.00
2017-12-25T17:12:34.628Z,94.00
2017-12-25T17:15:02.919Z,94.10
2017-12-25T17:17:30.467Z,94.00
2017-12-25T17:19:58.815Z,93.70
2017-12-25T17:22:26.355Z,93.70
2017-12-25T17:24:53.900Z,93.70
2017-12-25T17:27:21.468Z,93.70
2017-12-25T17:29:49.010Z,93.70
2017-12-25T17:32:16.555Z,93.70
2017-12-25T17:34:44.143Z,93.90
2017-12-25T17:37:11.692Z,93.90
2017-12-25T17:39:39.249Z,94.10
2017-12-25T17:42:06.833Z,94.30
2017-12-25T17:44:34.379Z,94.40
2017-12-25T17:47:01.928Z,94.40
2017-12-25T17:49:29.500Z,94.50
2017-12-25T17:51:57.041Z,94.50
2017-12-25T17:54:24.588Z,94.40
2017-12-25T17:56:52.207Z,94.30
2017-12-25T17:59:19.753Z,94.30
2017-12-25T18:01:47.701Z,94.50
2017-12-25T18:04:16.462Z,94.10
2017-12-25T18:06:44.768Z,94.30
2017-12-25T18:09:12.303Z,94.20
2017-12-25T18:11:40.628Z,94.20
2017-12-25T18:14:08.168Z,94.20
2017-12-25T18:16:35.708Z,94.20
2017-12-25T18:19:03.297Z,94.10
2017-12-25T18:21:30.840Z,94.10
2017-12-25T18:23:58.383Z,94.10
2017-12-25T18:26:26.712Z,94.20
2017-12-25T18:28:54.251Z,94.20
2017-12-25T18:31:23.644Z,94.10
2017-12-25T18:33:51.212Z,94.10
2017-12-25T18:36:18.807Z,94.10
2017-12-25T18:38:47.542Z,93.70
2017-12-25T18:41:17.215Z,93.80
2017-12-25T18:43:44.756Z,93.80
2017-12-25T18:46:12.299Z,93.90
2017-12-25T18:48:39.896Z,93.90
2017-12-25T18:51:07.461Z,94.10
2017-12-25T18:53:35.009Z,94.10
2017-12-25T18:56:02.619Z,94.20
2017-12-25T18:58:32.940Z,94.10
2017-12-25T19:01:01.332Z,94.10
2017-12-25T19:03:29.540Z,94.10
2017-12-25T19:05:57.088Z,94.10
2017-12-25T19:08:24.628Z,93.90
2017-12-25T19:10:55.181Z,93.90
2017-12-25T19:13:23.627Z,94.00
2017-12-25T19:15:51.168Z,93.80
2017-12-25T19:18:19.497Z,93.80
2017-12-25T19:20:47.079Z,93.70
2017-12-25T19:23:17.235Z,93.70
2017-12-25T19:25:45.675Z,93.60
2017-12-25T19:28:25.102Z,93.70
2017-12-25T19:33:27.165Z,93.80
2017-12-25T19:35:54.760Z,93.80
2017-12-25T19:38:22.349Z,93.90
2017-12-25T19:40:50.015Z,94.10
2017-12-25T19:43:18.366Z,94.10
2017-12-25T19:45:46.667Z,94.10
2017-12-25T19:48:25.317Z,93.90
2017-12-25T19:59:18.692Z,93.80
2017-12-25T20:01:47.045Z,93.80
2017-12-25T20:04:25.971Z,93.80
2017-12-25T20:14:26.124Z,94.00
2017-12-25T20:16:53.758Z,94.10
2017-12-25T20:19:21.304Z,94.20
2017-12-25T20:21:48.971Z,94.30
2017-12-25T20:24:16.652Z,94.30
2017-12-25T20:26:44.258Z,94.30
2017-12-25T20:29:12.501Z,94.10
2017-12-25T20:31:40.099Z,94.00
2017-12-25T20:34:07.635Z,94.30
2017-12-25T20:36:35.287Z,94.20
2017-12-25T20:39:02.832Z,94.30
2017-12-25T20:41:30.379Z,94.30
2017-12-25T20:43:58.054Z,94.20
2017-12-25T20:46:26.377Z,94.00
2017-12-25T20:48:53.963Z,94.00
2017-12-25T20:51:22.356Z,94.00
2017-12-25T20:53:50.703Z,93.80
2017-12-25T20:56:18.299Z,93.70
2017-12-25T20:58:45.939Z,93.70
2017-12-25T21:01:24.370Z,93.70
2017-12-25T21:08:21.336Z,93.50
2017-12-25T21:10:49.639Z,93.90
2017-12-25T21:13:18.115Z,93.80
2017-12-25T21:15:45.768Z,94.00
2017-12-25T21:18:15.456Z,94.20
2017-12-25T21:20:44.725Z,94.20
2017-12-25T21:23:12.379Z,94.10
2017-12-25T21:25:39.963Z,94.00
2017-12-25T21:28:07.528Z,94.00
2017-12-25T21:30:35.168Z,94.00
2017-12-25T21:33:02.778Z,93.60
2017-12-25T21:35:30.371Z,93.60
2017-12-25T21:37:58.052Z,93.50
2017-12-25T21:40:25.636Z,93.60
2017-12-25T21:42:53.259Z,93.70
2017-12-25T21:45:20.872Z,93.70
2017-12-25T21:47:49.231Z,93.70
2017-12-25T21:50:16.772Z,93.60
2017-12-25T21:52:44.384Z,93.40
2017-12-25T21:55:12.003Z,93.20
2017-12-25T21:57:39.588Z,93.30
2017-12-25T22:00:07.718Z,93.30
2017-12-25T22:02:36.079Z,93.00
2017-12-25T22:05:03.666Z,93.00
2017-12-25T22:07:31.284Z,93.00
2017-12-25T22:09:59.115Z,93.10
2017-12-25T22:12:26.711Z,93.20
2017-12-25T22:14:55.086Z,93.40
2017-12-25T22:17:22.683Z,93.40
2017-12-25T22:19:50.232Z,93.30
2017-12-25T22:22:17.870Z,93.20
2017-12-25T22:24:46.172Z,93.40
2017-12-25T22:27:26.323Z,93.40
2017-12-25T22:32:26.232Z,93.40
2017-12-25T22:34:54.598Z,93.80
2017-12-25T22:37:22.153Z,93.70
2017-12-25T22:39:49.743Z,93.70
2017-12-25T22:42:17.590Z,93.60
2017-12-25T22:44:45.128Z,93.70
2017-12-25T22:47:13.688Z,93.80
2017-12-25T22:49:42.067Z,93.70
2017-12-25T22:52:10.379Z,93.40
2017-12-25T22:54:37.975Z,93.40
2017-12-25T22:57:05.595Z,93.40
2017-12-25T22:59:33.144Z,93.40
2017-12-25T23:02:00.718Z,93.40
2017-12-25T23:04:28.347Z,93.00
2017-12-25T23:06:55.942Z,92.60
2017-12-25T23:09:23.575Z,92.70
2017-12-25T23:11:51.635Z,92.80
2017-12-25T23:14:19.193Z,92.90
2017-12-25T23:16:46.790Z,93.00
2017-12-25T23:19:16.338Z,93.30
2017-12-25T23:21:43.949Z,93.20
2017-12-25T23:24:11.529Z,93.10
2017-12-25T23:26:39.167Z,92.80
2017-12-25T23:29:06.747Z,92.80
2017-12-25T23:31:34.329Z,92.90
2017-12-25T23:34:02.702Z,93.20
2017-12-25T23:36:31.059Z,93.30
2017-12-25T23:38:58.599Z,93.30
2017-12-25T23:41:26.239Z,93.30
2017-12-25T23:43:53.775Z,93.30
2017-12-25T23:46:22.080Z,93.40
2017-12-25T23:48:49.737Z,93.30
2017-12-25T23:51:17.276Z,93.40
2017-12-25T23:53:44.820Z,93.30
2017-12-25T23:56:12.431Z,93.30
2017-12-25T23:58:40.010Z,93.20
